sensor_id;sensor_type;location;lat;lon;timestamp;P1;durP1;ratioP1;P2;durP2;ratioP2
77449;SDS011;66536;53.150;18.172;2023-04-02T00:00:32;5.30;;;3.50;;
77449;SDS011;66536;53.150;18.172;2023-04-02T00:03:19;5.40;;;3.20;;
77449;SDS011;66536;53.150;18.172;2023-04-02T00:05:46;6.40;;;3.70;;
77449;SDS011;66536;53.150;18.172;2023-04-02T00:08:17;7.10;;;3.30;;
77449;SDS011;66536;53.150;18.172;2023-04-02T00:10:53;10.80;;;3.90;;
77449;SDS011;66536;53.150;18.172;2023-04-02T00:13:24;6.40;;;3.30;;
77449;SDS011;66536;53.150;18.172;2023-04-02T00:15:56;5.30;;;2.90;;
77449;SDS011;66536;53.150;18.172;2023-04-02T00:18:28;4.00;;;2.40;;
77449;SDS011;66536;53.150;18.172;2023-04-02T00:20:59;4.50;;;2.50;;
77449;SDS011;66536;53.150;18.172;2023-04-02T00:23:37;5.00;;;2.50;;
77449;SDS011;66536;53.150;18.172;2023-04-02T00:26:18;4.00;;;1.50;;
77449;SDS011;66536;53.150;18.172;2023-04-02T00:28:58;5.60;;;2.30;;
77449;SDS011;66536;53.150;18.172;2023-04-02T00:31:25;4.20;;;1.80;;
77449;SDS011;66536;53.150;18.172;2023-04-02T00:33:52;4.30;;;1.40;;
77449;SDS011;66536;53.150;18.172;2023-04-02T00:36:19;3.60;;;1.70;;
77449;SDS011;66536;53.150;18.172;2023-04-02T00:38:49;3.40;;;1.80;;
77449;SDS011;66536;53.150;18.172;2023-04-02T00:41:18;4.60;;;2.10;;
77449;SDS011;66536;53.150;18.172;2023-04-02T00:43:49;3.30;;;1.60;;
77449;SDS011;66536;53.150;18.172;2023-04-02T00:46:18;6.80;;;2.50;;
77449;SDS011;66536;53.150;18.172;2023-04-02T00:48:50;3.90;;;1.40;;
77449;SDS011;66536;53.150;18.172;2023-04-02T00:51:27;2.60;;;1.30;;
77449;SDS011;66536;53.150;18.172;2023-04-02T00:54:04;3.10;;;2.00;;
77449;SDS011;66536;53.150;18.172;2023-04-02T00:56:38;3.10;;;1.90;;
77449;SDS011;66536;53.150;18.172;2023-04-02T01:01:51;2.50;;;1.60;;
77449;SDS011;66536;53.150;18.172;2023-04-02T01:04:27;3.30;;;1.30;;
77449;SDS011;66536;53.150;18.172;2023-04-02T01:07:00;2.90;;;1.80;;
77449;SDS011;66536;53.150;18.172;2023-04-02T01:12:19;3.60;;;1.30;;
77449;SDS011;66536;53.150;18.172;2023-04-02T01:15:10;3.50;;;1.90;;
77449;SDS011;66536;53.150;18.172;2023-04-02T01:17:51;3.20;;;1.50;;
77449;SDS011;66536;53.150;18.172;2023-04-02T01:20:56;2.40;;;1.50;;
77449;SDS011;66536;53.150;18.172;2023-04-02T01:24:20;2.60;;;0.90;;
77449;SDS011;66536;53.150;18.172;2023-04-02T01:27:14;2.50;;;1.50;;
77449;SDS011;66536;53.150;18.172;2023-04-02T01:29:46;1.80;;;1.10;;
77449;SDS011;66536;53.150;18.172;2023-04-02T01:32:18;5.10;;;2.30;;
77449;SDS011;66536;53.150;18.172;2023-04-02T01:34:48;2.80;;;1.60;;
77449;SDS011;66536;53.150;18.172;2023-04-02T01:43:15;1.60;;;0.60;;
77449;SDS011;66536;53.150;18.172;2023-04-02T01:45:48;1.50;;;0.70;;
77449;SDS011;66536;53.150;18.172;2023-04-02T01:48:16;1.30;;;0.40;;
77449;SDS011;66536;53.150;18.172;2023-04-02T01:50:47;1.70;;;0.50;;
77449;SDS011;66536;53.150;18.172;2023-04-02T01:53:17;1.80;;;0.60;;
77449;SDS011;66536;53.150;18.172;2023-04-02T01:55:49;2.20;;;0.90;;
77449;SDS011;66536;53.150;18.172;2023-04-02T01:58:20;2.60;;;1.00;;
77449;SDS011;66536;53.150;18.172;2023-04-02T02:03:29;2.30;;;0.80;;
77449;SDS011;66536;53.150;18.172;2023-04-02T02:06:01;3.10;;;0.60;;
77449;SDS011;66536;53.150;18.172;2023-04-02T02:08:35;2.40;;;0.90;;
77449;SDS011;66536;53.150;18.172;2023-04-02T02:11:05;2.70;;;0.90;;
77449;SDS011;66536;53.150;18.172;2023-04-02T02:13:35;3.10;;;0.90;;
77449;SDS011;66536;53.150;18.172;2023-04-02T02:16:03;1.30;;;0.70;;
77449;SDS011;66536;53.150;18.172;2023-04-02T02:18:34;3.00;;;0.90;;
77449;SDS011;66536;53.150;18.172;2023-04-02T02:21:01;1.90;;;1.10;;
77449;SDS011;66536;53.150;18.172;2023-04-02T02:23:29;1.10;;;0.80;;
77449;SDS011;66536;53.150;18.172;2023-04-02T02:25:57;2.10;;;0.70;;
77449;SDS011;66536;53.150;18.172;2023-04-02T02:28:26;1.10;;;0.60;;
77449;SDS011;66536;53.150;18.172;2023-04-02T02:30:57;2.20;;;1.40;;
77449;SDS011;66536;53.150;18.172;2023-04-02T02:33:37;3.30;;;2.30;;
77449;SDS011;66536;53.150;18.172;2023-04-02T02:39:01;2.20;;;1.10;;
77449;SDS011;66536;53.150;18.172;2023-04-02T02:41:50;3.60;;;1.10;;
77449;SDS011;66536;53.150;18.172;2023-04-02T02:44:23;2.70;;;0.70;;
77449;SDS011;66536;53.150;18.172;2023-04-02T02:47:01;2.40;;;1.80;;
77449;SDS011;66536;53.150;18.172;2023-04-02T02:50:00;3.00;;;1.30;;
77449;SDS011;66536;53.150;18.172;2023-04-02T02:52:35;2.60;;;1.20;;
77449;SDS011;66536;53.150;18.172;2023-04-02T02:55:08;3.60;;;1.10;;
77449;SDS011;66536;53.150;18.172;2023-04-02T02:57:53;2.90;;;1.10;;
77449;SDS011;66536;53.150;18.172;2023-04-02T03:00:25;3.00;;;1.30;;
77449;SDS011;66536;53.150;18.172;2023-04-02T03:02:52;2.70;;;1.40;;
77449;SDS011;66536;53.150;18.172;2023-04-02T03:05:22;5.80;;;3.40;;
77449;SDS011;66536;53.150;18.172;2023-04-02T03:07:52;4.00;;;2.00;;
77449;SDS011;66536;53.150;18.172;2023-04-02T03:10:31;3.40;;;1.30;;
77449;SDS011;66536;53.150;18.172;2023-04-02T03:13:08;3.40;;;1.10;;
77449;SDS011;66536;53.150;18.172;2023-04-02T03:18:35;4.20;;;1.70;;
77449;SDS011;66536;53.150;18.172;2023-04-02T03:21:47;2.50;;;1.20;;
77449;SDS011;66536;53.150;18.172;2023-04-02T03:24:28;4.40;;;1.30;;
77449;SDS011;66536;53.150;18.172;2023-04-02T03:27:17;3.00;;;1.10;;
77449;SDS011;66536;53.150;18.172;2023-04-02T03:30:05;3.50;;;1.40;;
77449;SDS011;66536;53.150;18.172;2023-04-02T03:32:46;6.00;;;2.10;;
77449;SDS011;66536;53.150;18.172;2023-04-02T03:35:18;3.90;;;1.30;;
77449;SDS011;66536;53.150;18.172;2023-04-02T03:37:53;4.80;;;1.20;;
77449;SDS011;66536;53.150;18.172;2023-04-02T03:40:27;3.10;;;1.50;;
77449;SDS011;66536;53.150;18.172;2023-04-02T03:43:02;3.10;;;1.60;;
77449;SDS011;66536;53.150;18.172;2023-04-02T03:45:38;4.70;;;1.10;;
77449;SDS011;66536;53.150;18.172;2023-04-02T03:48:12;1.50;;;0.80;;
77449;SDS011;66536;53.150;18.172;2023-04-02T03:50:49;3.00;;;1.00;;
77449;SDS011;66536;53.150;18.172;2023-04-02T03:53:24;1.70;;;0.70;;
77449;SDS011;66536;53.150;18.172;2023-04-02T03:55:52;2.10;;;1.00;;
77449;SDS011;66536;53.150;18.172;2023-04-02T04:01:11;2.00;;;1.00;;
77449;SDS011;66536;53.150;18.172;2023-04-02T04:03:49;4.30;;;1.60;;
77449;SDS011;66536;53.150;18.172;2023-04-02T04:06:26;3.30;;;1.50;;
77449;SDS011;66536;53.150;18.172;2023-04-02T04:09:18;6.70;;;1.60;;
77449;SDS011;66536;53.150;18.172;2023-04-02T04:11:52;7.00;;;1.70;;
77449;SDS011;66536;53.150;18.172;2023-04-02T04:14:27;9.90;;;5.80;;
77449;SDS011;66536;53.150;18.172;2023-04-02T04:17:02;6.80;;;3.30;;
77449;SDS011;66536;53.150;18.172;2023-04-02T04:19:46;3.10;;;1.20;;
77449;SDS011;66536;53.150;18.172;2023-04-02T04:22:33;5.50;;;2.30;;
77449;SDS011;66536;53.150;18.172;2023-04-02T04:25:18;4.80;;;1.70;;
77449;SDS011;66536;53.150;18.172;2023-04-02T04:28:01;3.20;;;1.20;;
77449;SDS011;66536;53.150;18.172;2023-04-02T04:31:13;3.10;;;1.40;;
77449;SDS011;66536;53.150;18.172;2023-04-02T04:33:44;2.60;;;0.80;;
77449;SDS011;66536;53.150;18.172;2023-04-02T04:36:23;3.70;;;1.20;;
77449;SDS011;66536;53.150;18.172;2023-04-02T04:38:56;5.30;;;1.50;;
77449;SDS011;66536;53.150;18.172;2023-04-02T04:41:27;4.40;;;1.30;;
77449;SDS011;66536;53.150;18.172;2023-04-02T04:44:00;4.00;;;1.60;;
77449;SDS011;66536;53.150;18.172;2023-04-02T04:46:48;4.00;;;1.40;;
77449;SDS011;66536;53.150;18.172;2023-04-02T04:49:24;5.10;;;1.40;;
77449;SDS011;66536;53.150;18.172;2023-04-02T04:51:58;4.90;;;1.30;;
77449;SDS011;66536;53.150;18.172;2023-04-02T04:54:35;3.40;;;1.60;;
77449;SDS011;66536;53.150;18.172;2023-04-02T04:57:04;4.30;;;1.60;;
77449;SDS011;66536;53.150;18.172;2023-04-02T04:59:42;6.10;;;1.60;;
77449;SDS011;66536;53.150;18.172;2023-04-02T05:02:18;3.60;;;1.20;;
77449;SDS011;66536;53.150;18.172;2023-04-02T05:04:58;4.90;;;1.40;;
77449;SDS011;66536;53.150;18.172;2023-04-02T05:07:27;2.30;;;1.40;;
77449;SDS011;66536;53.150;18.172;2023-04-02T05:13:05;5.60;;;1.90;;
77449;SDS011;66536;53.150;18.172;2023-04-02T05:15:45;4.10;;;1.60;;
77449;SDS011;66536;53.150;18.172;2023-04-02T05:18:39;4.00;;;1.10;;
77449;SDS011;66536;53.150;18.172;2023-04-02T05:21:22;2.90;;;1.50;;
77449;SDS011;66536;53.150;18.172;2023-04-02T05:23:58;2.70;;;1.10;;
77449;SDS011;66536;53.150;18.172;2023-04-02T05:26:36;3.60;;;1.50;;
77449;SDS011;66536;53.150;18.172;2023-04-02T05:29:15;2.50;;;1.10;;
77449;SDS011;66536;53.150;18.172;2023-04-02T05:32:08;1.70;;;0.70;;
77449;SDS011;66536;53.150;18.172;2023-04-02T05:34:40;3.90;;;1.10;;
77449;SDS011;66536;53.150;18.172;2023-04-02T05:37:14;4.50;;;1.00;;
77449;SDS011;66536;53.150;18.172;2023-04-02T05:39:48;1.50;;;0.60;;
77449;SDS011;66536;53.150;18.172;2023-04-02T05:42:22;5.00;;;1.30;;
77449;SDS011;66536;53.150;18.172;2023-04-02T05:45:05;8.70;;;4.20;;
77449;SDS011;66536;53.150;18.172;2023-04-02T05:47:43;14.10;;;8.10;;
77449;SDS011;66536;53.150;18.172;2023-04-02T05:50:20;28.70;;;16.50;;
77449;SDS011;66536;53.150;18.172;2023-04-02T05:52:55;9.80;;;5.20;;
77449;SDS011;66536;53.150;18.172;2023-04-02T05:55:31;21.00;;;6.50;;
77449;SDS011;66536;53.150;18.172;2023-04-02T05:58:05;44.10;;;8.30;;
77449;SDS011;66536;53.150;18.172;2023-04-02T06:00:41;31.60;;;5.10;;
77449;SDS011;66536;53.150;18.172;2023-04-02T06:03:22;31.80;;;6.50;;
77449;SDS011;66536;53.150;18.172;2023-04-02T06:06:00;17.50;;;4.30;;
77449;SDS011;66536;53.150;18.172;2023-04-02T06:08:37;22.00;;;4.60;;
77449;SDS011;66536;53.150;18.172;2023-04-02T06:11:10;22.40;;;5.80;;
77449;SDS011;66536;53.150;18.172;2023-04-02T06:13:42;9.30;;;2.60;;
77449;SDS011;66536;53.150;18.172;2023-04-02T06:16:12;5.80;;;1.70;;
77449;SDS011;66536;53.150;18.172;2023-04-02T06:18:40;4.30;;;1.60;;
77449;SDS011;66536;53.150;18.172;2023-04-02T06:21:09;7.00;;;3.30;;
77449;SDS011;66536;53.150;18.172;2023-04-02T06:23:51;3.30;;;2.00;;
77449;SDS011;66536;53.150;18.172;2023-04-02T06:29:07;1.80;;;0.80;;
77449;SDS011;66536;53.150;18.172;2023-04-02T06:31:46;5.90;;;1.90;;
77449;SDS011;66536;53.150;18.172;2023-04-02T06:34:19;8.50;;;2.50;;
77449;SDS011;66536;53.150;18.172;2023-04-02T06:37:01;4.60;;;1.40;;
77449;SDS011;66536;53.150;18.172;2023-04-02T06:39:35;5.90;;;2.70;;
77449;SDS011;66536;53.150;18.172;2023-04-02T06:42:10;8.20;;;4.80;;
77449;SDS011;66536;53.150;18.172;2023-04-02T06:44:54;1.40;;;0.80;;
77449;SDS011;66536;53.150;18.172;2023-04-02T06:47:44;3.70;;;1.60;;
77449;SDS011;66536;53.150;18.172;2023-04-02T06:53:03;6.60;;;1.10;;
77449;SDS011;66536;53.150;18.172;2023-04-02T06:55:42;6.80;;;1.20;;
77449;SDS011;66536;53.150;18.172;2023-04-02T06:58:14;4.90;;;1.20;;
77449;SDS011;66536;53.150;18.172;2023-04-02T07:00:48;3.50;;;1.30;;
77449;SDS011;66536;53.150;18.172;2023-04-02T07:03:24;2.20;;;0.80;;
77449;SDS011;66536;53.150;18.172;2023-04-02T07:06:19;5.90;;;1.80;;
77449;SDS011;66536;53.150;18.172;2023-04-02T07:08:48;3.60;;;1.10;;
77449;SDS011;66536;53.150;18.172;2023-04-02T07:11:17;2.40;;;1.00;;
77449;SDS011;66536;53.150;18.172;2023-04-02T07:13:46;5.10;;;1.20;;
77449;SDS011;66536;53.150;18.172;2023-04-02T07:16:14;3.80;;;1.20;;
77449;SDS011;66536;53.150;18.172;2023-04-02T07:18:42;4.50;;;1.20;;
77449;SDS011;66536;53.150;18.172;2023-04-02T07:21:09;3.70;;;1.20;;
77449;SDS011;66536;53.150;18.172;2023-04-02T07:23:35;5.50;;;1.00;;
77449;SDS011;66536;53.150;18.172;2023-04-02T07:26:05;4.90;;;1.30;;
77449;SDS011;66536;53.150;18.172;2023-04-02T07:28:33;6.50;;;1.50;;
77449;SDS011;66536;53.150;18.172;2023-04-02T07:31:00;5.40;;;1.00;;
77449;SDS011;66536;53.150;18.172;2023-04-02T07:33:27;8.60;;;2.80;;
77449;SDS011;66536;53.150;18.172;2023-04-02T07:35:56;7.60;;;3.20;;
77449;SDS011;66536;53.150;18.172;2023-04-02T07:38:22;7.50;;;2.80;;
77449;SDS011;66536;53.150;18.172;2023-04-02T07:40:49;6.20;;;2.80;;
77449;SDS011;66536;53.150;18.172;2023-04-02T07:43:16;12.10;;;3.80;;
77449;SDS011;66536;53.150;18.172;2023-04-02T07:45:42;4.20;;;1.30;;
77449;SDS011;66536;53.150;18.172;2023-04-02T07:48:09;3.60;;;1.20;;
77449;SDS011;66536;53.150;18.172;2023-04-02T07:50:37;3.50;;;1.50;;
77449;SDS011;66536;53.150;18.172;2023-04-02T07:53:04;5.60;;;1.80;;
77449;SDS011;66536;53.150;18.172;2023-04-02T07:55:31;3.00;;;0.90;;
77449;SDS011;66536;53.150;18.172;2023-04-02T07:58:01;8.00;;;2.40;;
77449;SDS011;66536;53.150;18.172;2023-04-02T08:00:31;7.10;;;2.00;;
77449;SDS011;66536;53.150;18.172;2023-04-02T08:02:59;12.50;;;3.00;;
77449;SDS011;66536;53.150;18.172;2023-04-02T08:05:27;5.00;;;1.60;;
77449;SDS011;66536;53.150;18.172;2023-04-02T08:07:55;9.50;;;2.70;;
77449;SDS011;66536;53.150;18.172;2023-04-02T08:10:22;2.70;;;1.20;;
77449;SDS011;66536;53.150;18.172;2023-04-02T08:12:51;5.70;;;1.50;;
77449;SDS011;66536;53.150;18.172;2023-04-02T08:15:17;15.10;;;4.00;;
77449;SDS011;66536;53.150;18.172;2023-04-02T08:17:46;16.40;;;4.00;;
77449;SDS011;66536;53.150;18.172;2023-04-02T08:20:16;6.90;;;1.60;;
77449;SDS011;66536;53.150;18.172;2023-04-02T08:22:47;4.80;;;1.70;;
77449;SDS011;66536;53.150;18.172;2023-04-02T08:25:18;3.00;;;1.40;;
77449;SDS011;66536;53.150;18.172;2023-04-02T08:27:45;9.70;;;3.80;;
77449;SDS011;66536;53.150;18.172;2023-04-02T08:30:32;3.70;;;1.40;;
77449;SDS011;66536;53.150;18.172;2023-04-02T08:32:59;6.80;;;3.00;;
77449;SDS011;66536;53.150;18.172;2023-04-02T08:35:26;11.90;;;3.80;;
77449;SDS011;66536;53.150;18.172;2023-04-02T08:37:52;9.20;;;3.30;;
77449;SDS011;66536;53.150;18.172;2023-04-02T08:40:21;8.80;;;3.20;;
77449;SDS011;66536;53.150;18.172;2023-04-02T08:48:34;14.00;;;4.90;;
77449;SDS011;66536;53.150;18.172;2023-04-02T08:51:03;13.70;;;5.80;;
77449;SDS011;66536;53.150;18.172;2023-04-02T08:53:40;7.50;;;2.70;;
77449;SDS011;66536;53.150;18.172;2023-04-02T08:59:17;7.50;;;2.80;;
77449;SDS011;66536;53.150;18.172;2023-04-02T09:01:59;3.20;;;1.70;;
77449;SDS011;66536;53.150;18.172;2023-04-02T09:04:36;3.70;;;1.40;;
77449;SDS011;66536;53.150;18.172;2023-04-02T09:07:08;3.80;;;1.30;;
77449;SDS011;66536;53.150;18.172;2023-04-02T09:09:37;2.80;;;1.30;;
77449;SDS011;66536;53.150;18.172;2023-04-02T09:12:03;4.80;;;1.60;;
77449;SDS011;66536;53.150;18.172;2023-04-02T09:14:41;7.20;;;3.60;;
77449;SDS011;66536;53.150;18.172;2023-04-02T09:17:29;9.50;;;3.00;;
77449;SDS011;66536;53.150;18.172;2023-04-02T09:22:44;15.20;;;3.60;;
77449;SDS011;66536;53.150;18.172;2023-04-02T09:25:19;6.90;;;1.80;;
77449;SDS011;66536;53.150;18.172;2023-04-02T09:27:48;18.50;;;5.80;;
77449;SDS011;66536;53.150;18.172;2023-04-02T09:33:12;10.40;;;2.90;;
77449;SDS011;66536;53.150;18.172;2023-04-02T09:38:23;9.50;;;2.50;;
77449;SDS011;66536;53.150;18.172;2023-04-02T09:40:57;7.50;;;2.70;;
77449;SDS011;66536;53.150;18.172;2023-04-02T09:43:30;11.60;;;3.50;;
77449;SDS011;66536;53.150;18.172;2023-04-02T09:46:01;8.50;;;2.80;;
77449;SDS011;66536;53.150;18.172;2023-04-02T09:48:33;10.70;;;2.50;;
77449;SDS011;66536;53.150;18.172;2023-04-02T09:51:06;5.70;;;1.90;;
77449;SDS011;66536;53.150;18.172;2023-04-02T09:54:06;13.00;;;4.10;;
77449;SDS011;66536;53.150;18.172;2023-04-02T09:56:38;8.00;;;3.60;;
77449;SDS011;66536;53.150;18.172;2023-04-02T09:59:13;15.10;;;6.60;;
77449;SDS011;66536;53.150;18.172;2023-04-02T10:01:45;10.10;;;3.80;;
77449;SDS011;66536;53.150;18.172;2023-04-02T10:04:45;6.40;;;3.20;;
77449;SDS011;66536;53.150;18.172;2023-04-02T10:10:01;10.90;;;5.10;;
77449;SDS011;66536;53.150;18.172;2023-04-02T10:12:58;6.90;;;2.10;;
77449;SDS011;66536;53.150;18.172;2023-04-02T10:15:36;5.20;;;2.50;;
77449;SDS011;66536;53.150;18.172;2023-04-02T10:18:19;3.90;;;1.30;;
77449;SDS011;66536;53.150;18.172;2023-04-02T10:20:54;3.90;;;1.70;;
77449;SDS011;66536;53.150;18.172;2023-04-02T10:23:23;4.90;;;1.50;;
77449;SDS011;66536;53.150;18.172;2023-04-02T10:26:02;3.20;;;1.30;;
77449;SDS011;66536;53.150;18.172;2023-04-02T10:29:03;4.40;;;2.40;;
77449;SDS011;66536;53.150;18.172;2023-04-02T10:32:07;6.20;;;1.70;;
77449;SDS011;66536;53.150;18.172;2023-04-02T10:35:18;4.30;;;2.10;;
77449;SDS011;66536;53.150;18.172;2023-04-02T10:42:36;5.10;;;1.60;;
77449;SDS011;66536;53.150;18.172;2023-04-02T10:45:55;5.20;;;2.30;;
77449;SDS011;66536;53.150;18.172;2023-04-02T10:51:58;5.30;;;2.30;;
77449;SDS011;66536;53.150;18.172;2023-04-02T10:54:36;5.00;;;1.50;;
77449;SDS011;66536;53.150;18.172;2023-04-02T11:01:24;8.30;;;2.80;;
77449;SDS011;66536;53.150;18.172;2023-04-02T11:04:28;3.80;;;1.80;;
77449;SDS011;66536;53.150;18.172;2023-04-02T11:08:03;7.20;;;2.20;;
77449;SDS011;66536;53.150;18.172;2023-04-02T11:10:56;5.00;;;2.10;;
77449;SDS011;66536;53.150;18.172;2023-04-02T11:13:34;5.30;;;2.30;;
77449;SDS011;66536;53.150;18.172;2023-04-02T11:16:06;4.60;;;2.10;;
77449;SDS011;66536;53.150;18.172;2023-04-02T11:18:38;5.10;;;1.80;;
77449;SDS011;66536;53.150;18.172;2023-04-02T11:22:12;8.60;;;2.30;;
77449;SDS011;66536;53.150;18.172;2023-04-02T11:27:15;7.70;;;2.80;;
77449;SDS011;66536;53.150;18.172;2023-04-02T11:29:49;5.40;;;2.30;;
77449;SDS011;66536;53.150;18.172;2023-04-02T11:32:32;7.80;;;3.00;;
77449;SDS011;66536;53.150;18.172;2023-04-02T11:35:03;5.40;;;1.80;;
77449;SDS011;66536;53.150;18.172;2023-04-02T11:37:53;8.70;;;3.00;;
77449;SDS011;66536;53.150;18.172;2023-04-02T11:45:56;7.00;;;2.40;;
77449;SDS011;66536;53.150;18.172;2023-04-02T11:48:30;7.80;;;2.20;;
77449;SDS011;66536;53.150;18.172;2023-04-02T11:51:00;11.60;;;4.60;;
77449;SDS011;66536;53.150;18.172;2023-04-02T11:53:55;9.90;;;3.10;;
77449;SDS011;66536;53.150;18.172;2023-04-02T11:59:17;4.70;;;2.10;;
77449;SDS011;66536;53.150;18.172;2023-04-02T12:04:51;5.30;;;2.60;;
77449;SDS011;66536;53.150;18.172;2023-04-02T12:10:22;13.40;;;6.60;;
77449;SDS011;66536;53.150;18.172;2023-04-02T12:12:52;7.40;;;3.00;;
77449;SDS011;66536;53.150;18.172;2023-04-02T12:18:34;6.20;;;2.00;;
77449;SDS011;66536;53.150;18.172;2023-04-02T12:20:50;12.50;;;4.40;;
77449;SDS011;66536;53.150;18.172;2023-04-02T12:23:22;13.60;;;5.20;;
77449;SDS011;66536;53.150;18.172;2023-04-02T12:25:57;18.80;;;5.50;;
77449;SDS011;66536;53.150;18.172;2023-04-02T12:28:43;6.50;;;2.50;;
77449;SDS011;66536;53.150;18.172;2023-04-02T12:31:15;16.30;;;5.60;;
77449;SDS011;66536;53.150;18.172;2023-04-02T12:34:17;18.70;;;5.90;;
77449;SDS011;66536;53.150;18.172;2023-04-02T12:37:15;8.00;;;3.50;;
77449;SDS011;66536;53.150;18.172;2023-04-02T12:40:15;13.70;;;4.70;;
77449;SDS011;66536;53.150;18.172;2023-04-02T12:42:57;14.70;;;5.80;;
77449;SDS011;66536;53.150;18.172;2023-04-02T12:45:42;16.20;;;5.90;;
77449;SDS011;66536;53.150;18.172;2023-04-02T12:48:13;11.20;;;4.10;;
77449;SDS011;66536;53.150;18.172;2023-04-02T12:50:40;15.20;;;6.80;;
77449;SDS011;66536;53.150;18.172;2023-04-02T12:53:10;6.40;;;2.40;;
77449;SDS011;66536;53.150;18.172;2023-04-02T12:55:49;10.40;;;3.50;;
77449;SDS011;66536;53.150;18.172;2023-04-02T12:58:17;3.00;;;1.60;;
77449;SDS011;66536;53.150;18.172;2023-04-02T13:00:50;4.60;;;1.90;;
77449;SDS011;66536;53.150;18.172;2023-04-02T13:03:18;4.70;;;1.50;;
77449;SDS011;66536;53.150;18.172;2023-04-02T13:05:50;3.90;;;1.70;;
77449;SDS011;66536;53.150;18.172;2023-04-02T13:11:37;5.00;;;2.60;;
77449;SDS011;66536;53.150;18.172;2023-04-02T13:14:07;3.90;;;1.50;;
77449;SDS011;66536;53.150;18.172;2023-04-02T13:16:43;3.90;;;1.40;;
77449;SDS011;66536;53.150;18.172;2023-04-02T13:19:10;5.20;;;1.60;;
77449;SDS011;66536;53.150;18.172;2023-04-02T13:21:48;3.40;;;1.50;;
77449;SDS011;66536;53.150;18.172;2023-04-02T13:24:16;6.30;;;2.60;;
77449;SDS011;66536;53.150;18.172;2023-04-02T13:26:47;5.70;;;1.70;;
77449;SDS011;66536;53.150;18.172;2023-04-02T13:29:24;2.60;;;1.20;;
77449;SDS011;66536;53.150;18.172;2023-04-02T13:32:02;1.90;;;0.80;;
77449;SDS011;66536;53.150;18.172;2023-04-02T13:34:33;3.60;;;1.40;;
77449;SDS011;66536;53.150;18.172;2023-04-02T13:37:00;4.40;;;1.40;;
77449;SDS011;66536;53.150;18.172;2023-04-02T13:39:28;3.80;;;1.20;;
77449;SDS011;66536;53.150;18.172;2023-04-02T13:41:57;6.50;;;2.00;;
77449;SDS011;66536;53.150;18.172;2023-04-02T13:44:28;4.60;;;1.40;;
77449;SDS011;66536;53.150;18.172;2023-04-02T13:46:57;5.20;;;2.40;;
77449;SDS011;66536;53.150;18.172;2023-04-02T13:49:24;2.60;;;1.00;;
77449;SDS011;66536;53.150;18.172;2023-04-02T13:52:12;6.00;;;2.00;;
77449;SDS011;66536;53.150;18.172;2023-04-02T13:54:44;7.80;;;3.70;;
77449;SDS011;66536;53.150;18.172;2023-04-02T13:57:14;2.60;;;1.50;;
77449;SDS011;66536;53.150;18.172;2023-04-02T13:59:40;1.80;;;0.70;;
77449;SDS011;66536;53.150;18.172;2023-04-02T14:02:08;6.00;;;1.30;;
77449;SDS011;66536;53.150;18.172;2023-04-02T14:04:40;6.80;;;2.00;;
77449;SDS011;66536;53.150;18.172;2023-04-02T14:15:31;3.90;;;1.40;;
77449;SDS011;66536;53.150;18.172;2023-04-02T14:18:37;5.20;;;1.80;;
77449;SDS011;66536;53.150;18.172;2023-04-02T14:21:22;6.10;;;3.10;;
77449;SDS011;66536;53.150;18.172;2023-04-02T14:27:04;7.70;;;2.10;;
77449;SDS011;66536;53.150;18.172;2023-04-02T14:29:46;4.90;;;1.50;;
77449;SDS011;66536;53.150;18.172;2023-04-02T14:38:35;6.60;;;2.30;;
77449;SDS011;66536;53.150;18.172;2023-04-02T14:40:57;5.30;;;1.30;;
77449;SDS011;66536;53.150;18.172;2023-04-02T14:43:31;4.70;;;1.50;;
77449;SDS011;66536;53.150;18.172;2023-04-02T14:46:09;2.70;;;1.00;;
77449;SDS011;66536;53.150;18.172;2023-04-02T14:48:42;4.60;;;1.80;;
77449;SDS011;66536;53.150;18.172;2023-04-02T14:51:21;2.90;;;1.10;;
77449;SDS011;66536;53.150;18.172;2023-04-02T14:58:09;6.20;;;1.50;;
77449;SDS011;66536;53.150;18.172;2023-04-02T15:00:57;3.60;;;0.90;;
77449;SDS011;66536;53.150;18.172;2023-04-02T15:03:38;8.00;;;2.90;;
77449;SDS011;66536;53.150;18.172;2023-04-02T15:06:17;6.70;;;2.50;;
77449;SDS011;66536;53.150;18.172;2023-04-02T15:08:57;4.90;;;2.30;;
77449;SDS011;66536;53.150;18.172;2023-04-02T15:11:44;4.90;;;1.60;;
77449;SDS011;66536;53.150;18.172;2023-04-02T15:14:27;2.90;;;1.00;;
77449;SDS011;66536;53.150;18.172;2023-04-02T15:17:26;11.20;;;2.50;;
77449;SDS011;66536;53.150;18.172;2023-04-02T15:20:24;8.50;;;1.80;;
77449;SDS011;66536;53.150;18.172;2023-04-02T15:23:20;3.80;;;1.50;;
77449;SDS011;66536;53.150;18.172;2023-04-02T15:26:05;3.80;;;1.60;;
77449;SDS011;66536;53.150;18.172;2023-04-02T15:29:00;5.30;;;1.20;;
77449;SDS011;66536;53.150;18.172;2023-04-02T15:32:15;6.70;;;1.60;;
77449;SDS011;66536;53.150;18.172;2023-04-02T15:38:21;6.80;;;2.10;;
77449;SDS011;66536;53.150;18.172;2023-04-02T15:41:28;15.40;;;3.50;;
77449;SDS011;66536;53.150;18.172;2023-04-02T15:44:20;5.20;;;2.20;;
77449;SDS011;66536;53.150;18.172;2023-04-02T15:54:11;11.10;;;3.20;;
77449;SDS011;66536;53.150;18.172;2023-04-02T16:03:17;6.20;;;2.80;;
77449;SDS011;66536;53.150;18.172;2023-04-02T16:11:56;9.10;;;3.70;;
77449;SDS011;66536;53.150;18.172;2023-04-02T16:14:40;8.40;;;2.30;;
77449;SDS011;66536;53.150;18.172;2023-04-02T16:17:12;9.90;;;3.00;;
77449;SDS011;66536;53.150;18.172;2023-04-02T16:19:45;5.90;;;2.00;;
77449;SDS011;66536;53.150;18.172;2023-04-02T16:27:45;6.30;;;2.20;;
77449;SDS011;66536;53.150;18.172;2023-04-02T16:33:12;11.70;;;3.90;;
77449;SDS011;66536;53.150;18.172;2023-04-02T16:36:01;5.40;;;1.40;;
77449;SDS011;66536;53.150;18.172;2023-04-02T16:39:00;10.20;;;2.80;;
77449;SDS011;66536;53.150;18.172;2023-04-02T16:41:39;26.10;;;7.00;;
77449;SDS011;66536;53.150;18.172;2023-04-02T16:44:25;9.50;;;3.00;;
77449;SDS011;66536;53.150;18.172;2023-04-02T16:47:12;7.50;;;3.00;;
77449;SDS011;66536;53.150;18.172;2023-04-02T16:50:00;18.60;;;5.60;;
77449;SDS011;66536;53.150;18.172;2023-04-02T16:52:39;9.70;;;3.20;;
77449;SDS011;66536;53.150;18.172;2023-04-02T16:55:25;9.10;;;3.20;;
77449;SDS011;66536;53.150;18.172;2023-04-02T16:58:07;7.10;;;2.10;;
77449;SDS011;66536;53.150;18.172;2023-04-02T17:00:54;6.30;;;1.70;;
77449;SDS011;66536;53.150;18.172;2023-04-02T17:03:34;17.50;;;5.00;;
77449;SDS011;66536;53.150;18.172;2023-04-02T17:06:19;19.40;;;5.00;;
77449;SDS011;66536;53.150;18.172;2023-04-02T17:09:02;12.30;;;3.20;;
77449;SDS011;66536;53.150;18.172;2023-04-02T17:11:39;14.50;;;4.40;;
77449;SDS011;66536;53.150;18.172;2023-04-02T17:14:22;16.00;;;4.40;;
77449;SDS011;66536;53.150;18.172;2023-04-02T17:16:56;6.00;;;1.70;;
77449;SDS011;66536;53.150;18.172;2023-04-02T17:19:26;4.90;;;1.30;;
77449;SDS011;66536;53.150;18.172;2023-04-02T17:21:56;10.80;;;4.10;;
77449;SDS011;66536;53.150;18.172;2023-04-02T17:24:34;7.90;;;2.80;;
77449;SDS011;66536;53.150;18.172;2023-04-02T17:27:10;5.50;;;1.60;;
77449;SDS011;66536;53.150;18.172;2023-04-02T17:29:47;7.20;;;1.60;;
77449;SDS011;66536;53.150;18.172;2023-04-02T17:32:23;2.90;;;1.10;;
77449;SDS011;66536;53.150;18.172;2023-04-02T17:34:53;3.20;;;1.00;;
77449;SDS011;66536;53.150;18.172;2023-04-02T17:37:24;6.90;;;2.00;;
77449;SDS011;66536;53.150;18.172;2023-04-02T17:40:07;5.40;;;1.30;;
77449;SDS011;66536;53.150;18.172;2023-04-02T17:43:03;5.60;;;1.50;;
77449;SDS011;66536;53.150;18.172;2023-04-02T17:45:49;6.40;;;2.10;;
77449;SDS011;66536;53.150;18.172;2023-04-02T17:51:01;2.40;;;0.60;;
77449;SDS011;66536;53.150;18.172;2023-04-02T17:53:43;3.70;;;1.00;;